Time;durP1;ratioP1;P1;durP2;ratioP2;P2;SDS_P1;SDS_P2;PMS_P1;PMS_P2;Temp;Humidity;BMP_temperature;BMP_pressure;BME280_temperature;BME280_humidity;BME280_pressure;Samples;Min_cycle;Max_cycle;Signal;HPM_P1;HPM_P2
2022/06/01 00:00:10;;;;;;;;;7.75;6.50;;;;;23.13;61.14;100916.91;146608;566;46021;-68
2022/06/01 00:03:02;;;;;;;;;5.67;3.67;;;;;23.06;60.29;100910.72;146607;621;46918;-69
2022/06/01 00:05:55;;;;;;;;;5.67;3.67;;;;;23.02;59.86;100909.84;146609;566;46021;-67
2022/06/01 00:08:47;;;;;;;;;6.00;5.25;;;;;23.01;60.10;100907.16;146607;582;46917;-67
2022/06/01 00:11:39;;;;;;;;;4.00;4.00;;;;;22.97;60.04;100913.34;146609;654;46010;-70
2022/06/01 00:14:33;;;;;;;;;3.67;3.67;;;;;22.93;59.43;100908.84;146607;584;46012;-70
2022/06/01 00:17:25;;;;;;;;;4.67;4.67;;;;;22.90;60.62;100912.41;146607;564;46020;-68
2022/06/01 00:20:17;;;;;;;;;4.00;4.00;;;;;22.86;59.84;100912.38;146605;586;46016;-69
2022/06/01 00:23:09;;;;;;;;;4.67;4.67;;;;;22.86;59.84;100910.59;146608;667;46020;-69
2022/06/01 00:26:02;;;;;;;;;5.00;5.00;;;;;22.84;59.61;100917.66;146606;589;46918;-70
2022/06/01 00:28:54;;;;;;;;;4.67;4.67;;;;;22.82;60.29;100901.78;146610;576;47012;-68
2022/06/01 00:31:46;;;;;;;;;3.00;3.00;;;;;22.77;60.02;100900.91;146607;618;46918;-68
2022/06/01 00:34:38;;;;;;;;;3.33;3.33;;;;;22.70;60.32;100907.00;146608;566;47010;-70
2022/06/01 00:37:30;;;;;;;;;3.25;3.25;;;;;22.63;61.04;100905.22;146605;695;46016;-71
2022/06/01 00:40:26;;;;;;;;;3.67;2.67;;;;;22.55;62.52;100902.56;146610;599;46020;-78
2022/06/01 00:43:29;;;;;;;;;4.00;4.00;;;;;22.45;61.66;100895.44;146606;591;46012;-72
2022/06/01 00:46:21;;;;;;;;;4.67;4.67;;;;;22.33;62.30;100893.59;146610;622;46020;-72
2022/06/01 00:49:23;;;;;;;;;4.00;3.33;;;;;22.22;62.28;100883.88;146608;602;46013;-72
2022/06/01 00:52:16;;;;;;;;;4.00;4.00;;;;;22.11;61.84;100874.06;146608;576;46020;-72
2022/06/01 00:55:22;;;;;;;;;8.00;4.00;;;;;22.08;60.93;100878.47;146604;630;46016;-72
2022/06/01 00:58:22;;;;;;;;;4.33;3.67;;;;;22.06;61.00;100882.88;146606;569;46021;-67
2022/06/01 01:01:19;;;;;;;;;5.00;5.00;;;;;22.10;61.16;100884.63;146607;593;46029;-68
2022/06/01 01:04:11;;;;;;;;;4.33;4.33;;;;;22.16;61.12;100881.16;146608;615;46020;-69
2022/06/01 01:07:12;;;;;;;;;5.33;4.67;;;;;22.13;59.58;100871.47;146605;591;46014;-66
2022/06/01 01:10:04;;;;;;;;;5.00;3.00;;;;;22.14;59.32;100865.28;146609;570;46010;-66
2022/06/01 01:12:56;;;;;;;;;3.33;3.33;;;;;22.14;59.66;100863.53;146607;570;46918;-68
2022/06/01 01:15:58;;;;;;;;;3.67;3.00;;;;;22.20;59.85;100870.66;146609;598;47010;-66
2022/06/01 01:18:52;;;;;;;;;3.67;3.00;;;;;22.28;60.26;100876.00;146608;604;46012;-66
2022/06/01 01:22:31;;;;;;;;;4.33;3.00;;;;;20.48;58.46;100547.56;146606;579;47010;-67
2022/06/01 01:25:51;;;;;;;;;4.00;3.25;;;;;22.46;59.81;100880.47;146604;613;46033;-67
2022/06/01 01:28:43;;;;;;;;;5.00;5.00;;;;;22.54;59.07;100879.62;146608;592;46021;-72
2022/06/01 01:31:36;;;;;;;;;4.00;2.00;;;;;22.65;59.15;100884.06;146607;584;46031;-73
2022/06/01 01:34:28;;;;;;;;;4.33;4.33;;;;;22.66;60.20;100884.09;146609;596;46021;-73
2022/06/01 01:37:27;;;;;;;;;7.00;4.67;;;;;22.58;59.57;100880.53;146606;563;46012;-72
2022/06/01 01:40:20;;;;;;;;;6.00;5.00;;;;;22.47;59.80;100885.78;146610;668;46020;-73
2022/06/01 01:43:13;;;;;;;;;5.00;4.00;;;;;22.37;60.75;100882.19;146606;608;46017;-73
2022/06/01 01:46:06;;;;;;;;;4.67;3.00;;;;;22.33;59.96;100885.69;146612;569;46010;-73
2022/06/01 01:48:58;;;;;;;;;5.33;3.33;;;;;22.24;61.12;100872.44;146603;637;46037;-73
2022/06/01 01:51:50;;;;;;;;;5.00;5.00;;;;;22.12;60.77;100880.25;146609;569;46020;-71
2022/06/01 01:55:03;;;;;;;;;3.00;3.00;;;;;22.00;60.79;100865.22;146608;564;46029;-70
2022/06/01 01:58:15;;;;;;;;;2.67;2.67;;;;;21.88;60.48;100880.97;146613;611;45047;-70
2022/06/01 02:01:16;;;;;;;;;3.33;3.00;;;;;21.75;62.03;100868.56;146609;626;46035;-70
2022/06/01 02:07:39;;;;;;;;;5.00;4.50;;;;;21.48;61.81;100877.13;146608;723;46016;-69
2022/06/01 02:13:43;;;;;;;;;6.33;4.33;;;;;21.33;62.69;100881.34;146607;591;46012;-68
2022/06/01 02:16:43;;;;;;;;;4.00;4.00;;;;;21.32;62.23;100878.69;146607;637;46020;-72
2022/06/01 02:19:50;;;;;;;;;6.00;5.00;;;;;21.32;62.11;100878.69;146607;573;46016;-72
2022/06/01 02:22:44;;;;;;;;;4.75;4.75;;;;;21.30;62.74;100878.66;146607;640;46020;-67
2022/06/01 02:25:36;;;;;;;;;3.33;3.33;;;;;21.28;62.58;100880.41;146608;576;46012;-69
2022/06/01 02:28:28;;;;;;;;;4.33;4.33;;;;;21.24;63.58;100881.25;146610;678;45031;-70
2022/06/01 02:31:23;;;;;;;;;4.67;4.67;;;;;21.20;63.22;100885.59;146608;615;47012;-70
2022/06/01 02:34:17;;;;;;;;;5.33;3.00;;;;;21.12;64.55;100887.28;146609;599;46021;-69
2022/06/01 02:37:11;;;;;;;;;3.00;3.00;;;;;21.05;63.22;100897.75;146608;565;46012;-71
2022/06/01 02:40:08;;;;;;;;;5.33;5.33;;;;;20.97;61.72;100895.03;146609;632;46012;-68
2022/06/01 02:43:00;;;;;;;;;3.33;3.33;;;;;20.95;61.84;100899.38;146607;582;46017;-68
2022/06/01 02:45:52;;;;;;;;;5.00;4.00;;;;;20.93;62.22;100896.75;146607;612;46020;-67
2022/06/01 02:48:45;;;;;;;;;4.33;4.33;;;;;20.96;62.10;100893.25;146604;613;46016;-71
2022/06/01 02:51:38;;;;;;;;;5.75;4.75;;;;;20.98;61.69;100895.03;146608;569;46012;-69
2022/06/01 02:54:30;;;;;;;;;5.00;4.00;;;;;21.04;61.89;100891.59;146605;642;46033;-70
2022/06/01 02:57:22;;;;;;;;;5.00;4.50;;;;;21.06;61.12;100889.88;146608;613;46010;-70
2022/06/01 03:00:22;;;;;;;;;4.50;4.50;;;;;21.15;61.14;100895.25;146605;606;46016;-67
2022/06/01 03:03:14;;;;;;;;;6.67;5.00;;;;;21.22;60.61;100902.34;146609;711;46021;-67
2022/06/01 03:06:06;;;;;;;;;5.00;5.00;;;;;21.32;60.70;100898.03;146608;575;46012;-67
2022/06/01 03:08:59;;;;;;;;;6.50;5.00;;;;;21.47;60.77;100902.63;146608;598;46020;-69
2022/06/01 03:11:51;;;;;;;;;4.00;4.00;;;;;21.61;60.88;100893.06;146605;668;47013;-69
2022/06/01 03:14:43;;;;;;;;;5.75;4.75;;;;;21.72;60.80;100893.16;146608;573;46020;-70
2022/06/01 03:17:35;;;;;;;;;5.33;4.00;;;;;21.79;60.12;100899.38;146604;576;46016;-70
2022/06/01 03:20:33;;;;;;;;;5.33;5.33;;;;;21.85;60.34;100902.94;146609;625;46010;-68
2022/06/01 03:23:25;;;;;;;;;6.75;5.75;;;;;21.88;60.00;100897.69;146608;569;46012;-67
2022/06/01 03:26:17;;;;;;;;;4.33;3.33;;;;;21.96;60.57;100899.50;146609;625;46023;-69
2022/06/01 03:29:09;;;;;;;;;7.75;5.75;;;;;22.01;60.73;100909.22;146605;680;46012;-69
2022/06/01 03:32:01;;;;;;;;;7.00;5.00;;;;;22.01;59.79;100909.22;146607;679;46013;-69
2022/06/01 03:34:53;;;;;;;;;6.25;4.75;;;;;22.02;60.34;100910.97;146606;698;46016;-72
2022/06/01 03:37:45;;;;;;;;;5.33;5.00;;;;;22.02;62.54;100910.97;146610;565;46027;-73
2022/06/01 03:40:39;;;;;;;;;7.67;6.00;;;;;21.98;60.63;100921.53;146606;628;47014;-70
2022/06/01 03:45:55;;;;;;;;;4.50;4.25;;;;;21.97;61.06;100920.63;146610;575;46010;-69
2022/06/01 03:46:44;;;;;;;;;6.00;5.00;;;;;22.01;60.75;100929.47;146607;604;46016;-68
2022/06/01 03:49:36;;;;;;;;;9.00;5.50;;;;;22.00;60.47;100925.94;146608;563;46010;-70
2022/06/01 03:52:28;;;;;;;;;5.67;5.00;;;;;22.03;59.89;100930.38;146604;588;46016;-70
2022/06/01 03:55:21;;;;;;;;;5.00;4.00;;;;;22.05;60.62;100932.13;146608;628;47011;-71
2022/06/01 03:58:18;;;;;;;;;8.67;6.33;;;;;22.07;60.26;100922.47;146605;635;46016;-70
2022/06/01 04:01:10;;;;;;;;;8.00;5.00;;;;;22.16;60.89;100928.69;146611;622;45020;-70
2022/06/01 04:04:03;;;;;;;;;7.33;5.33;;;;;22.14;60.88;100931.31;146602;587;47014;-71
2022/06/01 04:06:55;;;;;;;;;7.00;6.00;;;;;22.17;61.68;100923.44;146607;583;46020;-69
2022/06/01 04:09:47;;;;;;;;;5.00;5.00;;;;;22.23;60.56;100926.13;146605;617;46016;-70
2022/06/01 04:12:40;;;;;;;;;5.00;4.00;;;;;22.35;59.92;100935.91;146609;638;46020;-70
2022/06/01 04:15:32;;;;;;;;;6.33;5.00;;;;;22.49;59.87;100931.59;146603;599;46034;-69
2022/06/01 04:18:24;;;;;;;;;7.00;5.75;;;;;22.59;59.53;100927.25;146609;577;46010;-69
2022/06/01 04:21:22;;;;;;;;;3.67;3.33;;;;;22.70;59.25;100932.56;146603;588;46918;-69
2022/06/01 04:24:20;;;;;;;;;6.00;5.00;;;;;22.80;59.11;100934.38;146610;660;46010;-69
2022/06/01 04:27:12;;;;;;;;;6.33;4.00;;;;;22.93;59.14;100936.22;146606;586;46016;-69
2022/06/01 04:30:04;;;;;;;;;6.33;4.67;;;;;23.07;59.04;100938.94;146609;623;46010;-69
2022/06/01 04:32:57;;;;;;;;;5.00;5.00;;;;;23.25;58.88;100938.09;146607;695;46017;-68
2022/06/01 04:35:50;;;;;;;;;5.33;3.33;;;;;23.46;58.42;100938.16;146607;571;46020;-69
2022/06/01 04:38:41;;;;;;;;;8.00;6.00;;;;;23.65;57.65;100938.19;146608;648;46012;-72
2022/06/01 04:41:34;;;;;;;;;4.67;4.00;;;;;23.82;56.67;100939.09;146608;569;46020;-75
2022/06/01 04:44:26;;;;;;;;;3.00;3.00;;;;;24.00;57.56;100938.22;146606;640;46014;-71
2022/06/01 04:47:21;;;;;;;;;5.00;5.00;;;;;24.19;57.51;100947.03;146608;610;46011;-70
2022/06/01 04:50:14;;;;;;;;;5.33;5.33;;;;;24.42;57.35;100958.53;146606;638;46016;-70
2022/06/01 04:53:06;;;;;;;;;4.00;3.67;;;;;24.61;57.00;100953.16;146609;593;46020;-70
2022/06/01 04:55:58;;;;;;;;;6.00;6.00;;;;;24.78;56.48;100954.00;146605;591;47014;-69
2022/06/01 04:58:50;;;;;;;;;4.00;4.00;;;;;24.94;56.59;100957.47;146609;617;46012;-78
2022/06/01 05:01:43;;;;;;;;;5.00;4.33;;;;;25.11;56.05;100952.09;146607;561;46015;-77
2022/06/01 05:04:35;;;;;;;;;5.00;4.00;;;;;25.29;55.64;100956.44;146612;662;46010;-76
2022/06/01 05:07:27;;;;;;;;;4.67;4.00;;;;;25.52;55.05;100956.31;146605;570;46918;-78
2022/06/01 05:10:21;;;;;;;;;7.00;5.00;;;;;25.73;55.26;100957.94;146609;570;46021;-79
2022/06/01 05:13:14;;;;;;;;;8.33;6.00;;;;;25.96;54.95;100960.44;146609;575;46012;-78
2022/06/01 05:16:09;;;;;;;;;2.33;2.33;;;;;26.16;54.08;100962.94;146611;609;46010;-77
2022/06/01 05:19:02;;;;;;;;;4.33;3.33;;;;;26.32;53.98;100958.34;146607;564;46012;-77
2022/06/01 05:21:54;;;;;;;;;5.00;5.00;;;;;26.46;53.92;100959.09;146609;602;46020;-77
2022/06/01 05:24:46;;;;;;;;;5.00;3.33;;;;;26.56;54.06;100962.56;146604;610;46017;-77
2022/06/01 05:27:39;;;;;;;;;4.00;4.00;;;;;26.64;53.68;100960.72;146608;665;46020;-78
2022/06/01 05:30:31;;;;;;;;;5.00;5.00;;;;;26.74;53.09;100954.38;146609;569;46014;-80
2022/06/01 05:33:23;;;;;;;;;3.00;3.00;;;;;26.84;52.84;100963.13;146608;610;46010;-78
2022/06/01 05:36:17;;;;;;;;;6.00;5.33;;;;;26.96;53.03;100962.97;146608;606;46034;-77
2022/06/01 05:39:09;;;;;;;;;6.00;5.33;;;;;27.04;52.69;100966.44;146608;609;46021;-77
2022/06/01 05:42:01;;;;;;;;;5.67;5.67;;;;;27.11;52.10;100965.44;146607;563;47012;-76
2022/06/01 05:44:56;;;;;;;;;4.00;4.00;;;;;27.12;52.18;100961.88;146605;613;46020;-75
2022/06/01 05:47:48;;;;;;;;;5.00;4.33;;;;;27.19;52.56;100957.38;146603;640;46035;-77
2022/06/01 05:50:40;;;;;;;;;6.33;5.33;;;;;27.28;52.39;100954.59;146606;570;46020;-78
2022/06/01 05:53:32;;;;;;;;;5.00;5.00;;;;;27.44;52.11;100955.25;146607;583;46012;-78
2022/06/01 05:56:25;;;;;;;;;5.00;5.00;;;;;27.60;50.67;100954.12;146607;566;46020;-76
2022/06/01 05:59:18;;;;;;;;;8.00;7.25;;;;;27.66;49.50;100953.13;146605;637;46012;-78
2022/06/01 06:02:11;;;;;;;;;5.33;5.33;;;;;27.55;50.88;100961.31;146605;611;46021;-76
2022/06/01 06:05:03;;;;;;;;;4.33;4.00;;;;;27.59;50.98;100963.00;146604;579;46961;-76
2022/06/01 06:07:56;;;;;;;;;5.00;5.00;;;;;27.68;50.74;100955.78;146612;595;45021;-78
2022/06/01 06:10:48;;;;;;;;;7.50;5.75;;;;;27.79;51.70;100956.56;146604;650;46014;-76
2022/06/01 06:13:40;;;;;;;;;5.00;4.00;;;;;27.92;51.24;100950.09;146607;657;46010;-77
2022/06/01 06:16:36;;;;;;;;;6.25;5.75;;;;;28.02;50.16;100943.69;146606;580;46016;-77
2022/06/01 06:19:28;;;;;;;;;5.00;5.00;;;;;28.18;49.54;100946.09;146610;605;46020;-77
2022/06/01 06:22:22;;;;;;;;;5.67;5.33;;;;;28.35;48.82;100948.44;146608;570;46015;-77
2022/06/01 06:25:15;;;;;;;;;8.67;5.67;;;;;28.49;48.71;100944.66;146609;570;46010;-77
2022/06/01 06:28:07;;;;;;;;;9.00;7.50;;;;;28.63;48.88;100940.81;146603;571;47014;-78
2022/06/01 06:31:00;;;;;;;;;5.00;4.00;;;;;28.77;48.19;100936.09;146607;613;46020;-76
2022/06/01 06:33:52;;;;;;;;;7.00;4.33;;;;;28.87;48.02;100944.78;146606;573;46016;-77
2022/06/01 06:36:44;;;;;;;;;5.00;4.67;;;;;28.93;47.96;100936.66;146611;574;46013;-77
2022/06/01 06:39:36;;;;;;;;;7.50;7.00;;;;;29.01;47.14;100937.41;146605;647;46017;-78
2022/06/01 06:42:29;;;;;;;;;6.00;6.00;;;;;28.98;47.75;100932.97;146605;600;46010;-78
2022/06/01 06:45:21;;;;;;;;;8.67;4.67;;;;;28.90;47.49;100926.91;146605;594;46012;-78
2022/06/01 06:48:13;;;;;;;;;4.75;4.25;;;;;28.93;47.56;100923.31;146609;665;46020;-77
2022/06/01 06:51:06;;;;;;;;;8.00;5.00;;;;;28.96;47.11;100921.44;146607;588;46014;-77
2022/06/01 06:53:58;;;;;;;;;4.00;4.00;;;;;29.02;47.19;100923.16;146609;590;46021;-78
2022/06/01 06:56:50;;;;;;;;;5.00;4.00;;;;;29.04;47.08;100924.00;146605;655;46014;-77
2022/06/01 06:59:43;;;;;;;;;3.67;3.67;;;;;29.11;46.57;100914.06;146606;648;46030;-78
2022/06/01 07:02:35;;;;;;;;;6.67;4.67;;;;;29.16;46.18;100921.06;146610;588;46012;-77
2022/06/01 07:08:38;;;;;;;;;5.50;5.25;;;;;29.12;45.53;100926.50;146605;570;46017;-76
2022/06/01 07:11:32;;;;;;;;;6.00;5.00;;;;;29.09;45.59;100924.75;146608;569;46010;-77
2022/06/01 07:14:24;;;;;;;;;5.00;4.33;;;;;29.08;45.89;100919.47;146609;585;46012;-76
2022/06/01 07:17:16;;;;;;;;;3.33;3.33;;;;;29.06;45.88;100918.59;146609;566;46020;-76
2022/06/01 07:20:09;;;;;;;;;2.00;2.00;;;;;29.04;46.74;100923.12;146606;640;46014;-75
2022/06/01 07:23:02;;;;;;;;;6.33;5.33;;;;;29.03;44.40;100921.34;146609;576;46032;-77
2022/06/01 07:25:54;;;;;;;;;5.67;5.00;;;;;29.08;46.33;100922.13;146607;646;46016;-77
2022/06/01 07:28:46;;;;;;;;;5.67;5.67;;;;;29.12;45.23;100921.16;146611;570;46010;-77
2022/06/01 07:31:39;;;;;;;;;3.00;3.00;;;;;29.14;43.88;100916.66;146604;569;46017;-77
2022/06/01 07:34:31;;;;;;;;;5.33;4.67;;;;;29.18;44.84;100927.22;146607;601;46020;-77
2022/06/01 07:43:45;;;;;;;;;3.67;3.00;;;;;28.88;44.18;100922.50;146607;577;46012;-77
2022/06/01 07:46:39;;;;;;;;;3.33;3.00;;;;;28.81;45.17;100931.56;146609;591;46020;-77
2022/06/01 07:49:31;;;;;;;;;4.33;3.00;;;;;28.68;45.15;100934.50;146606;630;46016;-77
2022/06/01 07:52:24;;;;;;;;;3.67;3.67;;;;;28.62;45.21;100929.28;146609;582;46021;-77
2022/06/01 07:55:15;;;;;;;;;4.67;4.67;;;;;28.59;45.79;100932.00;146606;618;46917;-77
2022/06/01 07:58:09;;;;;;;;;3.00;2.33;;;;;28.67;47.22;100929.19;146609;627;46010;-77
2022/06/01 08:01:01;;;;;;;;;6.50;3.00;;;;;28.72;44.95;100929.97;146601;674;47012;-77
2022/06/01 08:03:53;;;;;;;;;5.00;3.33;;;;;28.67;45.23;100927.41;146609;583;46010;-77
2022/06/01 08:06:45;;;;;;;;;6.33;5.00;;;;;28.65;44.74;100926.53;146605;610;46016;-77
2022/06/01 08:09:38;;;;;;;;;5.75;4.75;;;;;28.76;44.81;100929.00;146628;679;45010;-76
2022/06/01 08:15:54;;;;;;;;;4.67;4.67;;;;;28.70;44.93;100934.47;146627;601;45030;-75
2022/06/01 08:18:46;;;;;;;;;5.00;4.00;;;;;28.71;45.95;100926.44;146628;624;46016;-77
2022/06/01 08:21:39;;;;;;;;;5.67;5.67;;;;;28.71;45.92;100936.22;146631;564;45030;-75
2022/06/01 08:24:32;;;;;;;;;7.00;6.00;;;;;28.81;46.68;100932.44;146628;627;46012;-77
2022/06/01 08:27:24;;;;;;;;;6.00;4.67;;;;;28.99;47.00;100928.50;146630;586;45020;-76
2022/06/01 08:30:19;;;;;;;;;8.00;5.67;;;;;29.19;46.91;100930.75;146627;602;45017;-75
2022/06/01 08:33:12;;;;;;;;;5.67;5.67;;;;;29.33;46.94;100930.47;146632;625;45010;-75
2022/06/01 08:36:05;;;;;;;;;6.00;4.00;;;;;28.87;46.31;100822.88;146629;599;45016;-76
2022/06/01 08:38:57;;;;;;;;;4.00;4.00;;;;;29.71;44.74;100931.38;146628;581;45020;-75
2022/06/01 08:41:50;;;;;;;;;5.33;5.00;;;;;29.83;44.16;100931.06;146627;610;45016;-76
2022/06/01 08:44:44;;;;;;;;;4.67;4.33;;;;;29.92;44.25;100929.03;146627;575;46010;-75
2022/06/01 08:47:45;;;;;;;;;6.33;4.00;;;;;30.05;43.59;100934.94;146630;657;45016;-77
2022/06/01 08:50:42;;;;;;;;;6.00;4.33;;;;;30.12;44.07;100932.97;146631;595;45914;-76
2022/06/01 08:53:34;;;;;;;;;2.33;2.33;;;;;30.19;41.46;100931.03;146626;596;45016;-76
2022/06/01 08:56:47;;;;;;;;;4.67;4.00;;;;;30.19;43.04;100926.56;146631;641;45010;-76
2022/06/01 09:00:09;;;;;;;;;2.67;2.67;;;;;29.34;42.43;100786.19;146628;612;45017;-76
2022/06/01 09:03:41;;;;;;;;;4.00;3.67;;;;;30.27;40.46;100926.38;146629;589;45029;-77
2022/06/01 09:06:45;;;;;;;;;4.00;4.00;;;;;30.44;41.53;100931.25;146627;569;45916;-76
2022/06/01 09:10:28;;;;;;;;;3.33;3.33;;;;;30.31;42.41;100874.56;146626;565;46010;-76
2022/06/01 09:13:24;;;;;;;;;5.33;4.00;;;;;30.82;40.71;100922.19;146628;617;46918;-77
2022/06/01 09:16:25;;;;;;;;;4.00;3.00;;;;;30.93;41.07;100929.88;146630;584;45010;-76
2022/06/01 09:19:26;;;;;;;;;6.00;3.00;;;;;30.99;40.11;100927.91;146624;614;45918;-75
2022/06/01 09:25:37;;;;;;;;;4.00;4.00;;;;;30.91;40.58;100911.22;146626;637;45016;-76
2022/06/01 09:28:33;;;;;;;;;4.00;4.00;;;;;30.86;39.04;100917.63;146631;614;45010;-76
2022/06/01 09:31:41;;;;;;;;;2.67;2.67;;;;;30.88;40.19;100915.78;146626;608;46918;-77
2022/06/01 09:34:48;;;;;;;;;3.00;2.00;;;;;30.97;40.84;100910.16;146632;596;45010;-77
2022/06/01 09:37:50;;;;;;;;;3.00;3.00;;;;;31.03;40.23;100921.56;146629;570;45017;-79
2022/06/01 09:40:43;;;;;;;;;2.33;2.33;;;;;31.06;36.70;100908.06;146629;605;45020;-82
2022/06/01 09:43:35;;;;;;;;;2.33;2.00;;;;;31.07;39.16;100906.25;146631;587;45013;-81
2022/06/01 09:46:37;;;;;;;;;2.00;2.00;;;;;31.02;38.00;100903.72;146628;564;45020;-80
2022/06/01 09:49:42;;;;;;;;;3.33;3.00;;;;;30.95;40.69;100899.47;146626;609;45918;-80
2022/06/01 09:52:39;;;;;;;;;4.33;3.00;;;;;30.95;39.48;100896.78;146628;602;45021;-80
2022/06/01 09:55:36;;;;;;;;;3.33;3.33;;;;;31.01;37.43;100896.59;146628;569;45918;-80
2022/06/01 10:09:00;;;;;;;;;2.67;2.00;;;;;31.30;38.90;100890.31;146611;613;46012;-80
2022/06/01 10:11:54;;;;;;;;;4.33;3.33;;;;;31.37;36.78;100904.47;146608;628;46010;-79
2022/06/01 10:14:58;;;;;;;;;3.00;3.00;;;;;31.36;38.43;100894.66;146601;678;47918;-80
2022/06/01 10:17:57;;;;;;;;;1.67;1.33;;;;;31.26;36.93;100896.72;146609;613;46020;-79
2022/06/01 10:21:01;;;;;;;;;3.33;2.00;;;;;31.18;39.81;100893.38;146607;574;46013;-82
2022/06/01 10:24:23;;;;;;;;;3.00;2.75;;;;;30.27;40.52;100725.78;146608;593;46020;-79
2022/06/01 10:27:16;;;;;;;;;4.67;3.00;;;;;31.18;39.44;100896.06;146607;570;46012;-79
2022/06/01 10:30:31;;;;;;;;;4.25;4.25;;;;;31.09;40.55;100893.69;146608;635;47010;-79
2022/06/01 10:33:49;;;;;;;;;4.00;4.00;;;;;30.13;41.35;100734.19;146605;624;46016;-80
2022/06/01 10:37:08;;;;;;;;;5.67;5.67;;;;;31.05;41.81;100892.03;146610;613;46010;-79
2022/06/01 10:40:15;;;;;;;;;4.75;4.75;;;;;31.08;42.58;100878.53;146608;613;46016;-78
2022/06/01 10:43:53;;;;;;;;;5.75;5.00;;;;;31.00;40.94;100888.63;146607;660;46011;-79
2022/06/01 10:47:08;;;;;;;;;5.75;5.00;;;;;29.90;42.40;100727.69;146604;633;46016;-79
2022/06/01 10:50:12;;;;;;;;;4.00;4.00;;;;;30.66;42.34;100870.87;146607;637;46021;-80
2022/06/01 10:53:27;;;;;;;;;4.50;4.25;;;;;30.70;42.73;100869.84;146603;572;47012;-78
2022/06/01 10:56:22;;;;;;;;;4.00;3.00;;;;;30.91;41.76;100879.09;146608;692;46012;-82
2022/06/01 10:59:18;;;;;;;;;6.50;4.50;;;;;31.11;42.15;100869.53;146603;665;46017;-81
2022/06/01 11:02:55;;;;;;;;;5.00;5.00;;;;;31.27;42.16;100870.78;146608;656;46010;-80
2022/06/01 11:06:37;;;;;;;;;3.67;3.67;;;;;31.33;41.32;100867.06;146608;576;45916;-81
2022/06/01 11:10:12;;;;;;;;;3.67;3.67;;;;;29.65;42.40;100583.22;146630;563;45020;-82
2022/06/01 11:13:49;;;;;;;;;5.00;3.75;;;;;30.47;42.03;100703.75;146627;654;45916;-80
2022/06/01 11:17:31;;;;;;;;;4.75;4.75;;;;;29.71;40.91;100565.25;146625;573;46010;-82
2022/06/01 11:21:01;;;;;;;;;3.00;3.00;;;;;30.45;42.32;100697.59;146628;570;45017;-81
2022/06/01 11:24:25;;;;;;;;;4.00;4.00;;;;;30.58;41.74;100693.59;146629;585;45020;-82
2022/06/01 11:28:02;;;;;;;;;5.50;5.00;;;;;31.54;42.41;100847.63;146630;596;45013;-82
2022/06/01 11:31:28;;;;;;;;;7.00;7.00;;;;;30.78;41.77;100701.00;146626;569;45030;-82
2022/06/01 11:34:27;;;;;;;;;5.50;4.50;;;;;31.65;41.46;100848.16;146626;740;46916;-79
2022/06/01 11:37:41;;;;;;;;;5.33;3.33;;;;;30.71;41.82;100678.88;146633;607;45010;-82
2022/06/01 11:40:51;;;;;;;;;4.00;4.00;;;;;31.63;42.34;100835.72;146625;577;45014;-81
2022/06/01 11:43:57;;;;;;;;;5.00;4.00;;;;;31.65;41.73;100831.16;146631;664;45012;-83
2022/06/01 11:47:05;;;;;;;;;7.25;5.00;;;;;31.64;41.99;100834.78;146627;725;45918;-81
2022/06/01 11:50:29;;;;;;;;;6.00;6.00;;;;;31.65;42.40;100829.38;146628;665;46010;-81
2022/06/01 11:53:49;;;;;;;;;5.33;5.00;;;;;31.63;40.80;100822.31;146624;567;45916;-87
2022/06/01 11:57:15;;;;;;;;;5.00;4.33;;;;;31.59;41.49;100820.66;146628;587;47010;-83
2022/06/01 12:00:27;;;;;;;;;5.67;3.67;;;;;31.56;41.15;100818.97;146630;570;45012;-82
2022/06/01 12:03:55;;;;;;;;;3.00;3.00;;;;;30.60;38.69;100662.31;146629;695;45020;-78
2022/06/01 12:07:01;;;;;;;;;3.75;3.75;;;;;31.44;41.58;100811.34;146626;569;45016;-84
2022/06/01 12:10:06;;;;;;;;;3.25;3.00;;;;;31.41;40.87;100804.28;146628;629;46010;-79
2022/06/01 12:13:08;;;;;;;;;4.50;4.50;;;;;31.46;41.88;100802.31;146627;596;46010;-82
2022/06/01 12:16:30;;;;;;;;;4.50;4.50;;;;;30.48;41.59;100609.22;146631;563;45010;-79
2022/06/01 12:19:45;;;;;;;;;5.00;4.67;;;;;30.66;41.32;100650.53;146629;564;45016;-83
2022/06/01 12:29:37;;;;;;;;;4.00;4.00;;;;;31.48;40.79;100796.91;146627;572;45020;-81
2022/06/01 12:32:31;;;;;;;;;3.67;3.67;;;;;30.71;40.48;100665.50;146629;634;45016;-80
2022/06/01 12:35:24;;;;;;;;;4.00;3.67;;;;;31.47;41.47;100796.03;146626;621;46010;-83
2022/06/01 12:38:42;;;;;;;;;5.00;5.00;;;;;31.46;41.55;100798.75;146628;606;45016;-81
2022/06/01 12:41:36;;;;;;;;;6.00;6.00;;;;;31.45;41.61;100795.19;146629;628;46010;-81
2022/06/01 12:44:29;;;;;;;;;7.00;5.00;;;;;31.49;40.83;100795.97;146629;609;45016;-82
2022/06/01 12:47:37;;;;;;;;;5.00;5.00;;;;;31.55;40.99;100795.75;146631;582;45030;-82
2022/06/01 12:50:31;;;;;;;;;4.33;4.33;;;;;31.59;41.66;100785.81;146628;647;46918;-82
2022/06/01 12:53:30;;;;;;;;;6.33;5.33;;;;;31.65;41.59;100781.12;146627;581;45029;-81
2022/06/01 12:56:27;;;;;;;;;5.00;4.33;;;;;31.73;40.83;100779.03;146628;639;45012;-83
2022/06/01 12:59:22;;;;;;;;;5.67;5.67;;;;;31.73;41.67;100781.72;146630;593;45913;-83
2022/06/01 13:02:18;;;;;;;;;5.33;4.33;;;;;31.64;41.03;100783.84;146627;580;46918;-81
2022/06/01 13:05:13;;;;;;;;;5.00;5.00;;;;;31.58;40.68;100779.56;146630;564;45020;-83
2022/06/01 13:08:07;;;;;;;;;6.00;5.00;;;;;31.54;40.58;100782.44;146616;624;46016;-83
2022/06/01 13:11:00;;;;;;;;;5.00;5.00;;;;;31.52;40.56;100777.09;146608;611;46020;-81
2022/06/01 13:13:52;;;;;;;;;4.67;3.00;;;;;31.53;40.33;100770.84;146606;589;46012;-81
2022/06/01 13:16:51;;;;;;;;;4.00;4.00;;;;;31.50;39.82;100766.44;146609;600;47010;-81
2022/06/01 13:19:43;;;;;;;;;4.00;3.33;;;;;31.49;40.35;100779.87;146603;579;46017;-83
2022/06/01 13:22:42;;;;;;;;;7.33;6.67;;;;;31.46;40.34;100769.28;146606;574;46012;-80
2022/06/01 13:25:38;;;;;;;;;5.00;4.67;;;;;31.42;39.88;100773.88;146606;606;46917;-82
2022/06/01 13:28:31;;;;;;;;;6.33;4.67;;;;;31.40;41.15;100758.78;146609;579;46021;-79
2022/06/01 13:31:23;;;;;;;;;6.00;5.00;;;;;31.35;40.48;100766.97;146607;599;46016;-81
2022/06/01 13:34:28;;;;;;;;;7.67;5.33;;;;;31.34;41.48;100762.56;146600;575;47021;-79
2022/06/01 13:37:30;;;;;;;;;5.33;5.33;;;;;31.36;40.69;100763.34;146607;607;46016;-81
2022/06/01 13:40:38;;;;;;;;;5.00;5.00;;;;;31.41;41.30;100763.22;146608;671;46021;-81
2022/06/01 13:43:31;;;;;;;;;5.67;4.33;;;;;31.42;40.66;100757.78;146606;567;46917;-82
2022/06/01 13:46:35;;;;;;;;;6.33;6.33;;;;;31.42;41.09;100762.28;146607;612;46010;-82
2022/06/01 13:49:29;;;;;;;;;8.75;6.00;;;;;31.37;39.96;100765.13;146606;625;46012;-84
2022/06/01 13:52:22;;;;;;;;;6.00;5.00;;;;;31.32;39.03;100753.66;146607;623;47010;-82
2022/06/01 13:55:29;;;;;;;;;4.00;4.00;;;;;31.27;40.64;100756.47;146606;606;46016;-82
2022/06/01 13:58:37;;;;;;;;;5.00;5.00;;;;;31.21;41.03;100758.50;146607;637;46020;-82
2022/06/01 14:01:55;;;;;;;;;7.00;4.00;;;;;31.23;40.97;100756.66;146606;582;46014;-82
2022/06/01 14:04:50;;;;;;;;;4.67;4.67;;;;;31.20;40.80;100759.44;146611;629;46010;-82
2022/06/01 14:07:59;;;;;;;;;4.00;4.00;;;;;31.14;42.14;100740.88;146605;591;46016;-81
2022/06/01 14:10:54;;;;;;;;;5.33;5.00;;;;;31.13;42.26;100740.00;146607;616;46020;-80
2022/06/01 14:13:49;;;;;;;;;5.00;5.00;;;;;31.09;42.72;100742.81;146608;586;46016;-70
2022/06/01 14:16:54;;;;;;;;;5.67;4.00;;;;;31.09;42.08;100738.34;146608;586;47010;-68
2022/06/01 14:19:47;;;;;;;;;7.00;6.00;;;;;31.09;41.95;100743.69;146608;597;46918;-73
2022/06/01 14:22:39;;;;;;;;;5.00;5.00;;;;;31.06;43.13;100741.16;146608;581;46020;-73
2022/06/01 14:28:44;;;;;;;;;6.00;5.00;;;;;30.98;41.76;100733.34;146607;596;46022;-72
2022/06/01 14:31:39;;;;;;;;;5.67;5.67;;;;;30.94;42.54;100729.03;146608;598;46016;-70